Time;durP1;ratioP1;P1;durP2;ratioP2;P2;SDS_P1;SDS_P2;PMS_P1;PMS_P2;Temp;Humidity;BMP_temperature;BMP_pressure;BME280_temperature;BME280_humidity;BME280_pressure;Samples;Min_cycle;Max_cycle;Signal;HPM_P1;HPM_P2
2022/12/08 00:01:29;;;;;;;73.57;36.17;;;;;;;-0.49;100.00;100288.80;1396795;87;21470;-80
2022/12/08 00:04:01;;;;;;;80.10;38.33;;;;;;;-0.51;100.00;100291.94;1388385;89;21475;-78
2022/12/08 00:09:41;;;;;;;54.93;29.07;;;;;;;-0.52;100.00;100308.90;1553275;88;21420;-80
2022/12/08 00:12:11;;;;;;;55.73;30.27;;;;;;;-0.55;100.00;100305.16;1394577;87;21324;-80
2022/12/08 00:14:45;;;;;;;36.00;20.57;;;;;;;-0.52;100.00;100299.80;1558847;87;21521;-80
2022/12/08 00:17:14;;;;;;;33.83;20.80;;;;;;;-0.50;100.00;100292.77;1394112;87;21310;-80
2022/12/08 00:19:41;;;;;;;28.93;18.03;;;;;;;-0.51;100.00;100299.73;1395035;87;21550;-80
2022/12/08 00:22:10;;;;;;;50.83;27.43;;;;;;;-0.51;100.00;100301.50;1435051;87;22304;-81
2022/12/08 00:24:38;;;;;;;66.27;33.17;;;;;;;-0.50;100.00;100304.01;1472393;87;22227;-79
2022/12/08 00:27:06;;;;;;;73.40;33.73;;;;;;;-0.50;100.00;100304.01;1484297;88;22637;-79
2022/12/08 00:29:32;;;;;;;69.70;36.03;;;;;;;-0.49;100.00;100303.11;1476395;87;21783;-82
2022/12/08 00:31:58;;;;;;;56.63;31.10;;;;;;;-0.47;100.00;100300.41;1460611;88;21696;-80
2022/12/08 00:34:24;;;;;;;58.43;30.00;;;;;;;-0.43;100.00;100308.88;1473321;88;21338;-79
2022/12/08 00:36:50;;;;;;;39.50;24.87;;;;;;;-0.42;100.00;100310.58;1471802;87;22518;-79
2022/12/08 00:39:17;;;;;;;36.30;21.27;;;;;;;-0.40;100.00;100319.12;1473827;88;21450;-81
2022/12/08 00:44:29;;;;;;;39.17;22.47;;;;;;;-0.31;100.00;100319.96;1474167;88;23127;-80
2022/12/08 00:46:55;;;;;;;46.80;27.23;;;;;;;-0.24;100.00;100317.40;1477350;88;21551;-79
2022/12/08 00:49:22;;;;;;;55.83;28.67;;;;;;;-0.20;100.00;100315.03;1463349;87;21441;-82
2022/12/08 00:51:48;;;;;;;53.80;29.30;;;;;;;-0.16;100.00;100321.73;1479107;87;21639;-81
2022/12/08 00:54:16;;;;;;;43.07;25.83;;;;;;;-0.16;100.00;100316.53;1470937;87;22613;-82
2022/12/08 00:56:42;;;;;;;39.17;24.17;;;;;;;-0.13;100.00;100312.47;1468680;87;21860;-81
2022/12/08 00:59:08;;;;;;;33.83;20.67;;;;;;;-0.10;100.00;100317.97;1473730;87;22637;-78
2022/12/08 01:01:35;;;;;;;31.67;20.70;;;;;;;-0.08;100.00;100320.88;1473929;87;22292;-80
2022/12/08 01:04:11;;;;;;;34.33;21.07;;;;;;;-0.09;100.00;100321.77;1474648;87;21647;-80
2022/12/08 01:06:38;;;;;;;30.93;19.23;;;;;;;-0.12;100.00;100316.73;1460217;88;22002;-80
2022/12/08 01:09:06;;;;;;;40.10;21.93;;;;;;;-0.14;100.00;100323.80;1472296;88;22467;-80
2022/12/08 01:11:33;;;;;;;44.13;25.80;;;;;;;-0.20;100.00;100324.57;1512732;87;22583;-80
2022/12/08 01:14:00;;;;;;;44.90;26.73;;;;;;;-0.26;100.00;100324.44;1484821;88;21497;-80
2022/12/08 01:16:30;;;;;;;42.47;24.53;;;;;;;-0.29;100.00;100328.06;1483571;87;22665;-81
2022/12/08 01:18:58;;;;;;;34.80;22.07;;;;;;;-0.32;100.00;100323.46;1483895;88;21710;-82
2022/12/08 01:21:25;;;;;;;32.27;20.50;;;;;;;-0.37;100.00;100326.79;1480507;88;21680;-80
2022/12/08 01:23:51;;;;;;;30.97;20.97;;;;;;;-0.42;100.00;100330.08;1484976;88;21587;-81
2022/12/08 01:26:19;;;;;;;36.20;20.97;;;;;;;-0.49;100.00;100329.54;1481514;87;21572;-81
2022/12/08 01:28:46;;;;;;;39.07;20.70;;;;;;;-0.50;100.00;100324.80;1479809;87;21316;-81
2022/12/08 01:31:16;;;;;;;41.10;24.00;;;;;;;-0.52;100.00;100318.87;1480388;87;21621;-81
2022/12/08 01:33:43;;;;;;;49.17;25.47;;;;;;;-0.51;100.00;100316.64;1478645;87;21478;-79
2022/12/08 01:36:21;;;;;;;49.03;26.83;;;;;;;-0.51;100.00;100317.94;1479923;87;21396;-82
2022/12/08 01:38:47;;;;;;;42.07;23.90;;;;;;;-0.52;100.00;100320.60;1479292;87;21372;-79
2022/12/08 01:41:17;;;;;;;31.40;19.87;;;;;;;-0.52;100.00;100319.30;1483632;87;22957;-80
2022/12/08 01:44:10;;;;;;;35.10;19.63;;;;;;;-0.52;100.00;100324.06;1483525;88;21582;-79
2022/12/08 01:46:43;;;;;;;32.10;20.07;;;;;;;-0.51;100.00;100311.90;1488065;87;21738;-79
2022/12/08 01:49:30;;;;;;;31.77;20.97;;;;;;;-0.51;100.00;100311.44;1472850;87;21681;-79
2022/12/08 01:52:14;;;;;;;41.40;21.47;;;;;;;-0.50;100.00;100314.41;1479576;87;21595;-80
2022/12/08 01:54:51;;;;;;;44.77;25.90;;;;;;;-0.54;100.00;100316.80;1488852;87;21759;-80
2022/12/08 01:57:25;;;;;;;38.67;23.00;;;;;;;-0.53;100.00;100308.53;1482219;87;21680;-80
2022/12/08 02:00:06;;;;;;;44.30;25.73;;;;;;;-0.52;100.00;100312.80;1480489;87;22124;-80
2022/12/08 02:02:54;;;;;;;41.33;23.13;;;;;;;-0.49;100.00;100310.91;1479725;87;21891;-80
2022/12/08 02:05:25;;;;;;;41.93;24.70;;;;;;;-0.48;100.00;100311.27;1479457;87;21660;-82
2022/12/08 02:07:52;;;;;;;35.28;22.00;;;;;;;-0.51;100.00;100317.94;1483592;87;21773;-82
2022/12/08 02:10:22;;;;;;;34.37;22.03;;;;;;;-0.51;100.00;100315.34;1490839;87;21374;-83
2022/12/08 02:12:52;;;;;;;39.45;23.32;;;;;;;-0.49;100.00;100318.70;1486749;88;21764;-79
2022/12/08 02:15:22;;;;;;;31.43;19.17;;;;;;;-0.47;100.00;100319.44;1485625;87;21382;-81
2022/12/08 02:17:57;;;;;;;32.40;20.50;;;;;;;-0.43;100.00;100324.48;1478365;87;21712;-82
2022/12/08 02:20:35;;;;;;;28.80;18.93;;;;;;;-0.44;100.00;100317.61;1487916;87;21819;-83
2022/12/08 02:23:25;;;;;;;31.77;19.10;;;;;;;-0.42;100.00;100321.81;1486351;88;21615;-84
2022/12/08 02:26:14;;;;;;;31.33;20.17;;;;;;;-0.39;100.00;100325.55;1482650;87;21647;-83
2022/12/08 02:29:06;;;;;;;32.90;19.43;;;;;;;-0.35;100.00;100323.62;1484388;88;21715;-82
2022/12/08 02:31:54;;;;;;;33.00;20.83;;;;;;;-0.32;100.00;100323.00;1449884;87;21666;-83
2022/12/08 02:34:55;;;;;;;34.77;20.77;;;;;;;-0.26;100.00;100312.73;1486217;87;21567;-83
2022/12/08 02:37:30;;;;;;;37.70;21.20;;;;;;;-0.22;100.00;100320.77;1488327;87;21558;-80
2022/12/08 02:40:10;;;;;;;33.97;21.13;;;;;;;-0.23;100.00;100319.10;1492757;88;21646;-80
2022/12/08 02:42:45;;;;;;;39.17;23.13;;;;;;;-0.21;100.00;100319.00;1471299;87;21504;-80
2022/12/08 02:45:20;;;;;;;47.00;26.03;;;;;;;-0.21;100.00;100316.40;1477068;88;21765;-81
2022/12/08 02:47:46;;;;;;;50.57;25.53;;;;;;;-0.18;100.00;100320.97;1473051;87;21514;-81
2022/12/08 02:50:12;;;;;;;43.57;24.47;;;;;;;-0.18;100.00;100327.47;1481093;88;22474;-81
2022/12/08 02:52:43;;;;;;;42.10;22.83;;;;;;;-0.21;100.00;100319.83;1485391;88;21544;-81
2022/12/08 02:55:29;;;;;;;45.97;26.03;;;;;;;-0.22;100.00;100324.67;1482603;87;21684;-80
2022/12/08 02:58:30;;;;;;;49.43;26.30;;;;;;;-0.24;100.00;100320.00;1485467;87;21375;-80
2022/12/08 03:01:39;;;;;;;73.57;30.80;;;;;;;-0.21;100.00;100321.60;1487632;87;21843;-81
2022/12/08 03:04:16;;;;;;;49.87;25.83;;;;;;;-0.21;100.00;100314.63;1481543;87;21544;-80
2022/12/08 03:07:09;;;;;;;70.33;30.17;;;;;;;-0.21;100.00;100308.59;1484324;87;21676;-81
2022/12/08 03:09:44;;;;;;;73.30;32.77;;;;;;;-0.23;100.00;100313.90;1482203;88;21752;-81
2022/12/08 03:12:21;;;;;;;43.03;24.70;;;;;;;-0.27;100.00;100309.77;1474400;87;21710;-80
2022/12/08 03:14:52;;;;;;;32.13;19.37;;;;;;;-0.31;100.00;100306.48;1480795;87;21776;-81
2022/12/08 03:17:23;;;;;;;48.40;24.72;;;;;;;-0.34;100.00;100312.33;1464977;87;21559;-81
2022/12/08 03:19:49;;;;;;;31.25;19.25;;;;;;;-0.40;100.00;100316.52;1477342;87;21347;-81
2022/12/08 03:22:21;;;;;;;44.83;23.90;;;;;;;-0.48;100.00;100309.97;1477794;88;21375;-80
2022/12/08 03:24:48;;;;;;;45.00;24.43;;;;;;;-0.52;100.00;100312.37;1478732;88;21520;-79
2022/12/08 03:27:19;;;;;;;32.70;20.57;;;;;;;-0.54;100.00;100318.09;1479104;88;21536;-78
2022/12/08 03:29:48;;;;;;;26.57;18.42;;;;;;;-0.59;100.00;100299.29;1481195;88;21656;-80
2022/12/08 03:32:40;;;;;;;29.83;18.83;;;;;;;-0.59;100.00;100303.19;1474247;87;21376;-79
2022/12/08 03:35:11;;;;;;;25.03;17.23;;;;;;;-0.57;100.00;100308.33;1470389;87;21587;-80
2022/12/08 03:37:39;;;;;;;43.50;21.87;;;;;;;-0.59;100.00;100321.39;1473648;88;22536;-79
2022/12/08 03:40:09;;;;;;;43.33;23.43;;;;;;;-0.61;100.00;100325.81;1475304;88;22234;-81
2022/12/08 03:42:35;;;;;;;33.98;19.50;;;;;;;-0.64;100.00;100325.14;1477399;87;21646;-82
2022/12/08 03:45:02;;;;;;;57.40;21.77;;;;;;;-0.66;100.00;100326.53;1476928;87;21346;-80
2022/12/08 03:47:29;;;;;;;36.67;22.50;;;;;;;-0.67;100.00;100324.84;1471522;88;21648;-80
2022/12/08 03:49:55;;;;;;;29.83;18.20;;;;;;;-0.68;100.00;100333.56;1465325;88;21618;-80
2022/12/08 03:52:21;;;;;;;34.47;20.53;;;;;;;-0.70;100.00;100334.09;1475947;88;21337;-80
2022/12/08 03:54:47;;;;;;;33.07;18.77;;;;;;;-0.75;100.00;100329.58;1480453;88;21711;-80
2022/12/08 03:57:13;;;;;;;72.63;31.67;;;;;;;-0.79;100.00;100328.06;1477616;88;21489;-80
2022/12/08 03:59:39;;;;;;;71.13;31.03;;;;;;;-0.81;100.00;100330.73;1487762;88;21521;-80
2022/12/08 04:02:05;;;;;;;90.13;33.60;;;;;;;-0.82;100.00;100330.83;1481905;87;21426;-80
2022/12/08 04:04:31;;;;;;;65.27;29.73;;;;;;;-0.86;100.00;100337.94;1475123;87;22474;-79
2022/12/08 04:06:57;;;;;;;63.83;25.93;;;;;;;-0.89;100.00;100334.63;1479607;87;22285;-80
2022/12/08 04:09:24;;;;;;;125.30;39.93;;;;;;;-0.92;100.00;100339.09;1469179;87;21646;-79
2022/12/08 04:11:50;;;;;;;134.23;45.63;;;;;;;-0.96;100.00;100337.54;1478636;87;21559;-80
2022/12/08 04:14:16;;;;;;;43.87;22.60;;;;;;;-0.99;100.00;100338.99;1472178;88;21668;-79
2022/12/08 04:16:42;;;;;;;63.13;27.53;;;;;;;-1.03;100.00;100349.17;1473951;88;21550;-79
2022/12/08 04:19:08;;;;;;;108.77;40.10;;;;;;;-1.05;100.00;100345.80;1477560;87;21599;-80
2022/12/08 04:21:34;;;;;;;101.77;36.37;;;;;;;-1.08;100.00;100349.02;1472654;88;21390;-80
2022/12/08 04:24:00;;;;;;;77.60;30.13;;;;;;;-1.09;100.00;100342.98;1466421;88;21555;-80
2022/12/08 04:26:26;;;;;;;35.83;21.43;;;;;;;-1.09;100.00;100341.68;1470001;88;22504;-79
2022/12/08 04:28:52;;;;;;;40.80;20.47;;;;;;;-1.08;100.00;100341.22;1482203;87;21367;-79
2022/12/08 04:31:18;;;;;;;33.97;20.47;;;;;;;-1.08;100.00;100342.05;1470863;87;21339;-77
2022/12/08 04:33:44;;;;;;;87.97;38.10;;;;;;;-1.12;100.00;100341.84;1477901;87;21456;-80
2022/12/08 04:36:10;;;;;;;66.70;33.03;;;;;;;-1.20;100.00;100346.09;1466244;87;21250;-80
2022/12/08 04:38:36;;;;;;;62.97;30.43;;;;;;;-1.27;100.00;100347.75;1484593;87;21567;-80
2022/12/08 04:41:03;;;;;;;78.97;35.10;;;;;;;-1.31;100.00;100347.53;1475625;87;21724;-79
2022/12/08 04:43:29;;;;;;;48.27;26.70;;;;;;;-1.37;100.00;100346.91;1475251;88;21630;-80
2022/12/08 04:45:55;;;;;;;170.77;63.37;;;;;;;-1.38;100.00;100343.94;1474874;88;21495;-81
2022/12/08 04:48:21;;;;;;;224.63;84.43;;;;;;;-1.40;100.00;100348.35;1473673;87;22458;-82
2022/12/08 04:50:47;;;;;;;139.93;63.30;;;;;;;-1.39;100.00;100342.23;1477766;88;21353;-85
2022/12/08 04:53:14;;;;;;;113.17;55.63;;;;;;;-1.38;100.00;100336.61;1475907;88;21557;-85
2022/12/08 04:55:43;;;;;;;81.43;41.70;;;;;;;-1.42;100.00;100343.68;1476848;88;21586;-84
2022/12/08 04:58:15;;;;;;;51.33;28.77;;;;;;;-1.42;100.00;100344.14;1479588;88;21513;-84
2022/12/08 05:00:42;;;;;;;77.40;40.20;;;;;;;-1.41;100.00;100340.62;1475946;87;21523;-83
2022/12/08 05:03:09;;;;;;;68.73;36.33;;;;;;;-1.44;100.00;100352.45;1474481;87;21548;-79
2022/12/08 05:05:35;;;;;;;75.93;36.57;;;;;;;-1.50;100.00;100354.88;1475885;87;22548;-79
2022/12/08 05:08:02;;;;;;;48.47;28.40;;;;;;;-1.53;100.00;100350.30;1476045;88;21625;-80
2022/12/08 05:10:28;;;;;;;48.77;29.83;;;;;;;-1.58;100.00;100360.92;1472018;87;21622;-80
2022/12/08 05:12:54;;;;;;;40.13;24.43;;;;;;;-1.61;100.00;100363.66;1470123;88;21682;-83
2022/12/08 05:15:20;;;;;;;59.37;32.73;;;;;;;-1.65;100.00;100364.23;1477044;87;21615;-82
2022/12/08 05:17:46;;;;;;;56.53;29.10;;;;;;;-1.68;100.00;100359.66;1473814;88;22509;-83
2022/12/08 05:20:13;;;;;;;45.00;27.33;;;;;;;-1.72;100.00;100360.72;1473199;87;21593;-82
2022/12/08 05:22:39;;;;;;;39.90;23.83;;;;;;;-1.70;100.00;100362.77;1469661;88;22271;-87
2022/12/08 05:25:05;;;;;;;73.30;37.50;;;;;;;-1.72;100.00;100360.26;1478671;88;21642;-83
2022/12/08 05:27:31;;;;;;;58.07;33.67;;;;;;;-1.74;100.00;100363.84;1479335;87;21869;-83
2022/12/08 05:29:57;;;;;;;49.53;30.10;;;;;;;-1.77;100.00;100362.68;1477661;88;21617;-80
2022/12/08 05:32:23;;;;;;;57.30;31.43;;;;;;;-1.78;100.00;100353.19;1468437;87;22084;-80
2022/12/08 05:34:50;;;;;;;71.83;43.20;;;;;;;-1.77;100.00;100352.30;1480688;88;21375;-80
2022/12/08 05:37:16;;;;;;;86.63;46.90;;;;;;;-1.79;100.00;100351.06;1470355;87;22377;-79
2022/12/08 05:39:42;;;;;;;75.83;43.60;;;;;;;-1.81;100.00;100350.31;1466640;87;21668;-79
2022/12/08 05:42:08;;;;;;;73.50;40.63;;;;;;;-1.80;100.00;100345.95;1476300;88;21324;-80
2022/12/08 05:44:34;;;;;;;59.33;35.50;;;;;;;-1.77;100.00;100353.59;1478121;88;21287;-80
2022/12/08 05:47:00;;;;;;;59.07;35.83;;;;;;;-1.79;100.00;100356.71;1466333;87;21661;-84
2022/12/08 05:49:26;;;;;;;69.27;38.33;;;;;;;-1.82;100.00;100353.34;1481066;87;21317;-83
2022/12/08 05:51:55;;;;;;;50.10;31.93;;;;;;;-1.83;100.00;100355.56;1465273;88;21382;-80
2022/12/08 05:54:22;;;;;;;37.83;23.57;;;;;;;-1.84;100.00;100346.10;1474189;88;21436;-81
2022/12/08 05:56:49;;;;;;;39.00;24.57;;;;;;;-1.80;100.00;100353.28;1475371;88;21570;-81
2022/12/08 05:59:15;;;;;;;36.80;23.77;;;;;;;-1.80;100.00;100352.45;1476034;87;22570;-81
2022/12/08 06:01:41;;;;;;;52.10;29.33;;;;;;;-1.78;100.00;100350.59;1472056;88;21464;-81
2022/12/08 06:04:08;;;;;;;45.33;27.67;;;;;;;-1.75;100.00;100355.67;1476596;88;22532;-81
2022/12/08 06:06:35;;;;;;;41.03;26.23;;;;;;;-1.71;100.00;100353.31;1478671;87;21583;-79
2022/12/08 06:09:03;;;;;;;41.10;24.57;;;;;;;-1.69;100.00;100354.09;1472894;87;22225;-79
2022/12/08 06:11:30;;;;;;;39.57;24.67;;;;;;;-1.67;100.00;100351.81;1477503;88;22173;-82
2022/12/08 06:13:58;;;;;;;38.50;24.60;;;;;;;-1.64;100.00;100355.98;1471786;87;21492;-85
2022/12/08 06:16:26;;;;;;;39.67;24.30;;;;;;;-1.63;100.00;100355.94;1482899;87;22534;-83
2022/12/08 06:18:52;;;;;;;43.83;27.43;;;;;;;-1.61;100.00;100355.41;1474806;87;21512;-84
2022/12/08 06:21:19;;;;;;;42.70;25.57;;;;;;;-1.59;100.00;100353.56;1478178;87;22612;-81
2022/12/08 06:23:51;;;;;;;38.47;24.37;;;;;;;-1.53;100.00;100361.98;1472565;87;21541;-82
2022/12/08 06:26:19;;;;;;;40.50;25.00;;;;;;;-1.51;100.00;100354.51;1470818;88;21788;-80
2022/12/08 06:28:45;;;;;;;41.23;26.63;;;;;;;-1.48;100.00;100351.77;1473206;87;22623;-80
2022/12/08 06:31:15;;;;;;;44.10;27.03;;;;;;;-1.43;100.00;100349.80;1469054;87;21595;-82
2022/12/08 06:33:42;;;;;;;45.28;25.50;;;;;;;-1.40;100.00;100354.84;1471702;87;22507;-82
2022/12/08 06:36:12;;;;;;;44.00;27.43;;;;;;;-1.34;100.00;100356.77;1478531;87;21479;-83
2022/12/08 06:38:39;;;;;;;41.83;27.27;;;;;;;-1.30;100.00;100355.70;1470850;88;21546;-83
2022/12/08 06:41:06;;;;;;;46.63;27.57;;;;;;;-1.27;100.00;100358.14;1477956;87;21685;-83
2022/12/08 06:43:32;;;;;;;49.63;28.50;;;;;;;-1.25;100.00;100361.05;1471053;87;22132;-84
2022/12/08 06:45:59;;;;;;;42.73;27.37;;;;;;;-1.18;100.00;100355.09;1472328;87;22449;-82
2022/12/08 06:48:25;;;;;;;42.23;27.43;;;;;;;-1.11;100.00;100353.06;1473251;87;21625;-84
2022/12/08 06:50:52;;;;;;;46.20;27.47;;;;;;;-1.04;100.00;100361.75;1466991;88;21667;-80
2022/12/08 06:53:18;;;;;;;41.53;26.03;;;;;;;-0.95;100.00;100358.73;1466605;88;22613;-81
2022/12/08 06:55:48;;;;;;;43.73;27.77;;;;;;;-0.83;100.00;100360.34;1476919;88;21453;-80
2022/12/08 06:58:14;;;;;;;46.57;27.30;;;;;;;-0.71;100.00;100366.20;1466342;88;21698;-84
2022/12/08 07:00:41;;;;;;;49.80;29.13;;;;;;;-0.61;100.00;100362.67;1472492;88;21661;-80
2022/12/08 07:03:09;;;;;;;48.77;28.63;;;;;;;-0.55;100.00;100363.19;1474736;88;21477;-79
2022/12/08 07:05:37;;;;;;;55.23;28.20;;;;;;;-0.44;100.00;100374.35;1477400;87;21528;-82
2022/12/08 07:08:04;;;;;;;45.30;27.37;;;;;;;-0.34;100.00;100361.27;1472804;88;21663;-81
2022/12/08 07:10:30;;;;;;;41.43;23.83;;;;;;;-0.24;100.00;100361.62;1477067;88;21660;-83
2022/12/08 07:12:56;;;;;;;38.57;25.77;;;;;;;-0.11;100.00;100374.84;1475487;87;22510;-86
2022/12/08 07:15:22;;;;;;;40.73;25.73;;;;;;;-0.08;100.00;100370.30;1482783;87;21510;-83
2022/12/08 07:17:48;;;;;;;64.20;37.43;;;;;;;-0.02;100.00;100395.16;1493061;87;22075;-85
2022/12/08 07:20:18;;;;;;;54.63;34.20;;;;;;;-0.02;100.00;100395.16;1489576;87;21958;-81
2022/12/08 07:22:50;;;;;;;51.40;31.83;;;;;;;0.02;100.00;100388.02;1479669;88;21764;-82
2022/12/08 07:25:18;;;;;;;53.50;32.20;;;;;;;0.06;100.00;100386.92;1483763;88;21687;-85
2022/12/08 07:27:45;;;;;;;36.90;23.90;;;;;;;0.14;100.00;100389.97;1473701;88;21598;-93
2022/12/08 07:30:12;;;;;;;54.23;30.40;;;;;;;0.16;100.00;100396.77;1482925;87;21588;-89
2022/12/08 07:32:39;;;;;;;47.13;29.37;;;;;;;0.18;100.00;100387.59;1487105;88;21558;-89
2022/12/08 07:35:09;;;;;;;46.43;27.93;;;;;;;0.22;100.00;100391.70;1484719;87;22513;-90
2022/12/08 07:37:38;;;;;;;41.70;26.15;;;;;;;0.27;100.00;100388.40;1480240;88;21468;-90
2022/12/08 07:40:07;;;;;;;35.37;22.43;;;;;;;0.35;100.00;100395.34;1475112;88;21412;-90
2022/12/08 07:42:33;;;;;;;38.80;23.93;;;;;;;0.48;100.00;100381.64;1474600;88;21713;-91
2022/12/08 07:45:17;;;;;;;35.87;21.60;;;;;;;0.61;100.00;100387.39;1480904;87;21679;-88
2022/12/08 07:47:43;;;;;;;34.17;22.13;;;;;;;0.84;100.00;100392.63;1480811;88;21822;-92
2022/12/08 07:50:10;;;;;;;35.80;23.57;;;;;;;0.84;100.00;100392.63;1474286;88;21735;-91
2022/12/08 07:52:36;;;;;;;34.53;23.80;;;;;;;1.05;100.00;100393.63;1481689;87;21474;-92
2022/12/08 07:55:02;;;;;;;32.50;22.20;;;;;;;1.05;100.00;100393.63;1474258;88;22690;-94
2022/12/08 07:57:29;;;;;;;36.13;22.50;;;;;;;1.41;100.00;100395.03;1473158;88;21406;-93
2022/12/08 07:59:55;;;;;;;35.00;23.10;;;;;;;1.41;100.00;100395.03;1468117;88;21899;-93
2022/12/08 08:02:21;;;;;;;39.17;23.83;;;;;;;1.74;100.00;100395.64;1481846;88;23504;-94
2022/12/08 08:04:49;;;;;;;43.27;29.93;;;;;;;1.74;100.00;100395.64;1487963;87;22048;-94
2022/12/08 08:07:15;;;;;;;53.43;34.07;;;;;;;1.86;100.00;100414.11;1481064;87;21976;-92
2022/12/08 08:09:41;;;;;;;50.30;33.63;;;;;;;1.89;100.00;100413.92;1486332;87;22038;-92
2022/12/08 08:12:09;;;;;;;39.37;28.50;;;;;;;1.90;100.00;100416.45;1483577;87;21412;-92
2022/12/08 08:14:35;;;;;;;31.07;21.23;;;;;;;1.95;100.00;100418.77;1471325;87;21464;-90
2022/12/08 08:17:01;;;;;;;32.80;21.83;;;;;;;1.99;100.00;100413.76;1470385;87;22173;-93
2022/12/08 08:19:27;;;;;;;32.77;22.13;;;;;;;2.08;100.00;100411.88;1465955;88;21508;-93
2022/12/08 08:26:00;;;;;;;34.37;22.93;;;;;;;2.22;100.00;100401.91;1477598;88;22161;-93
2022/12/08 08:28:28;;;;;;;32.57;22.13;;;;;;;2.37;100.00;100399.63;1475728;87;22099;-93
2022/12/08 08:30:55;;;;;;;39.90;25.70;;;;;;;2.41;100.00;100395.05;1482830;87;22999;-90
2022/12/08 08:33:22;;;;;;;43.33;27.87;;;;;;;2.42;100.00;100395.44;1457370;88;22010;-92
2022/12/08 08:35:48;;;;;;;44.03;26.73;;;;;;;2.43;100.00;100401.86;1470982;88;22094;-93
2022/12/08 08:38:14;;;;;;;40.13;25.67;;;;;;;2.49;100.00;100403.25;1476951;88;22228;-93
2022/12/08 08:40:40;;;;;;;41.67;24.10;;;;;;;2.54;100.00;100394.66;1483222;88;22070;-93
2022/12/08 08:43:07;;;;;;;42.07;28.23;;;;;;;2.60;100.00;100390.82;1471416;88;21323;-93
2022/12/08 08:45:33;;;;;;;38.20;23.97;;;;;;;2.64;100.00;100391.81;1474459;87;22336;-94
2022/12/08 08:48:00;;;;;;;35.63;22.70;;;;;;;2.74;100.00;100393.39;1462511;87;21412;-92
2022/12/08 08:50:26;;;;;;;40.07;24.13;;;;;;;2.79;100.00;100391.33;1470132;87;21361;-93
2022/12/08 08:53:05;;;;;;;39.03;26.33;;;;;;;2.91;100.00;100396.23;1467630;88;21916;-93
2022/12/08 08:55:38;;;;;;;37.27;25.43;;;;;;;2.99;100.00;100392.63;1471460;87;22337;-90
2022/12/08 08:58:04;;;;;;;35.47;23.63;;;;;;;2.99;99.14;100390.48;1475568;87;22379;-87
2022/12/08 09:00:30;;;;;;;41.67;25.00;;;;;;;3.07;99.77;100386.43;1477984;87;21404;-92
2022/12/08 09:02:56;;;;;;;37.13;25.57;;;;;;;3.15;99.86;100385.47;1476362;87;21442;-90
2022/12/08 09:05:22;;;;;;;37.13;26.60;;;;;;;3.18;99.20;100386.21;1476246;87;21368;-89
2022/12/08 09:07:48;;;;;;;39.97;28.03;;;;;;;3.23;99.55;100385.44;1473887;88;22343;-91
2022/12/08 09:10:30;;;;;;;37.80;25.73;;;;;;;3.28;99.54;100393.36;1471093;87;21331;-90
2022/12/08 09:13:14;;;;;;;;;;;;;;;3.27;98.24;100384.28;1476243;87;22386;-91
2022/12/08 09:15:40;;;;;;;34.57;22.73;;;;;;;3.26;96.67;100388.69;1465951;88;20802;-92
2022/12/08 09:18:06;;;;;;;32.30;23.03;;;;;;;3.31;96.91;100394.91;1475551;87;21435;-92
2022/12/08 09:20:34;;;;;;;32.97;21.20;;;;;;;3.37;97.00;100391.91;1471250;87;21441;-92
2022/12/08 09:23:00;;;;;;;35.47;22.37;;;;;;;3.42;96.73;100379.33;1459385;88;21906;-91
2022/12/08 09:25:27;;;;;;;31.50;22.13;;;;;;;3.47;95.57;100377.25;1467455;87;21346;-91
2022/12/08 09:31:54;;;;;;;46.80;27.77;;;;;;;3.60;96.28;100372.87;1478169;88;21456;-91
2022/12/08 09:34:21;;;;;;;43.60;29.53;;;;;;;3.72;96.09;100370.36;1462427;88;21361;-91
2022/12/08 09:40:53;;;;;;;56.47;34.60;;;;;;;3.72;93.95;100358.59;1473227;88;22836;-91
2022/12/08 09:43:39;;;;;;;52.37;31.93;;;;;;;3.77;94.32;100357.77;1481698;87;22254;-91
2022/12/08 09:46:09;;;;;;;55.67;32.77;;;;;;;3.84;95.46;100355.11;1470503;87;21457;-92
2022/12/08 09:48:41;;;;;;;45.95;29.30;;;;;;;3.91;95.73;100358.97;1463283;88;21435;-92
2022/12/08 09:51:13;;;;;;;43.70;29.70;;;;;;;3.96;95.18;100358.19;1473310;88;22463;-89
2022/12/08 09:53:47;;;;;;;46.30;32.07;;;;;;;3.99;95.24;100352.73;1475985;87;21754;-88
2022/12/08 09:56:24;;;;;;;41.93;29.07;;;;;;;4.04;95.48;100359.80;1475724;88;21671;-92
2022/12/08 09:59:01;;;;;;;42.43;27.70;;;;;;;4.09;95.83;100362.59;1453181;88;21471;-89
2022/12/08 10:01:31;;;;;;;43.60;27.03;;;;;;;4.03;93.59;100352.90;1476945;87;21419;-91
2022/12/08 10:03:57;;;;;;;43.90;30.03;;;;;;;4.02;93.98;100349.89;1465231;87;21346;-92
2022/12/08 10:06:38;;;;;;;43.00;29.30;;;;;;;4.01;93.42;100354.77;1484646;88;22267;-85
2022/12/08 10:09:25;;;;;;;46.05;29.20;;;;;;;4.02;93.90;100355.13;1468647;87;21604;-89
2022/12/08 10:12:31;;;;;;;32.97;24.33;;;;;;;4.06;93.93;100344.82;1472344;88;21470;-90
2022/12/08 10:15:15;;;;;;;39.73;27.70;;;;;;;4.15;94.35;100351.67;1476552;88;21486;-89
2022/12/08 10:17:48;;;;;;;38.47;25.90;;;;;;;4.24;94.62;100341.84;1474792;87;21641;-86
2022/12/08 10:20:21;;;;;;;34.83;23.77;;;;;;;4.27;92.99;100337.70;1473441;87;21648;-90
2022/12/08 10:22:52;;;;;;;39.13;26.53;;;;;;;4.26;92.02;100334.72;1474163;87;21427;-91
2022/12/08 10:25:23;;;;;;;42.00;26.52;;;;;;;4.26;91.71;100325.55;1474518;88;21471;-91
2022/12/08 10:27:53;;;;;;;39.77;27.37;;;;;;;4.25;91.86;100319.93;1477442;88;22373;-90
2022/12/08 10:30:21;;;;;;;42.50;28.53;;;;;;;4.25;92.44;100320.77;1474161;87;21554;-91
2022/12/08 10:32:53;;;;;;;44.07;27.40;;;;;;;4.28;92.77;100314.47;1474947;87;21581;-92
2022/12/08 10:35:21;;;;;;;37.33;25.17;;;;;;;4.33;93.08;100319.39;1468238;88;21286;-91
2022/12/08 10:37:57;;;;;;;41.00;25.80;;;;;;;4.41;93.77;100321.82;1480441;87;21449;-90
2022/12/08 10:40:28;;;;;;;39.50;27.33;;;;;;;4.51;94.01;100307.56;1466218;88;21368;-90
2022/12/08 10:42:58;;;;;;;35.25;24.57;;;;;;;4.60;92.82;100306.06;1468730;88;21456;-88
2022/12/08 10:45:28;;;;;;;32.23;23.47;;;;;;;4.67;92.77;100305.98;1473768;87;21338;-87
2022/12/08 10:48:01;;;;;;;32.83;23.55;;;;;;;4.72;92.74;100299.94;1474192;87;21976;-88
2022/12/08 10:50:37;;;;;;;36.07;23.57;;;;;;;4.76;92.31;100298.75;1476051;87;21286;-88
2022/12/08 10:53:24;;;;;;;31.60;23.33;;;;;;;4.82;92.61;100293.05;1465563;88;21500;-88
2022/12/08 10:56:13;;;;;;;34.43;23.43;;;;;;;4.85;92.43;100290.20;1484525;87;21523;-90
2022/12/08 10:58:51;;;;;;;37.60;25.37;;;;;;;4.92;92.19;100283.56;1472790;87;22366;-88
2022/12/08 11:01:27;;;;;;;81.03;52.37;;;;;;;4.94;91.18;100279.02;1471720;88;21472;-89
2022/12/08 11:04:03;;;;;;;50.43;30.80;;;;;;;4.95;90.34;100282.02;1488297;87;21516;-89
2022/12/08 11:06:36;;;;;;;33.27;23.23;;;;;;;4.99;91.36;100274.75;1467969;87;21405;-90
2022/12/08 11:09:08;;;;;;;34.97;24.83;;;;;;;5.03;90.34;100270.09;1471171;87;21413;-86
2022/12/08 11:11:56;;;;;;;38.40;25.80;;;;;;;5.12;91.34;100270.70;1475208;87;21382;-88
2022/12/08 11:14:45;;;;;;;31.77;22.60;;;;;;;5.19;91.75;100260.95;1471951;87;21381;-86
2022/12/08 11:17:25;;;;;;;42.23;27.47;;;;;;;5.24;89.84;100253.22;1470342;88;21516;-88
2022/12/08 11:20:02;;;;;;;35.73;24.67;;;;;;;5.22;89.10;100246.77;1392775;87;21235;-89
2022/12/08 11:22:42;;;;;;;37.93;25.00;;;;;;;5.23;89.27;100244.48;1483822;88;21596;-87
2022/12/08 11:25:25;;;;;;;35.43;25.88;;;;;;;5.26;89.67;100241.63;1471490;88;21523;-88
2022/12/08 11:27:58;;;;;;;38.10;26.27;;;;;;;5.26;88.94;100229.81;1472490;88;21417;-87
2022/12/08 11:30:40;;;;;;;38.87;26.50;;;;;;;5.25;88.17;100226.02;1450148;88;21361;-88
2022/12/08 11:33:17;;;;;;;33.80;23.90;;;;;;;5.23;87.55;100228.75;1473024;88;22111;-88
2022/12/08 11:35:48;;;;;;;32.87;24.20;;;;;;;5.21;87.51;100235.92;1477091;88;21485;-88
2022/12/08 11:38:22;;;;;;;33.35;23.87;;;;;;;5.24;87.92;100230.44;1543420;88;21302;-88
2022/12/08 11:40:57;;;;;;;34.07;24.73;;;;;;;5.29;87.52;100230.89;1484766;87;21876;-87